KLUL/LUL METAR and TAF weather

Enter ICAO airport designator
Station Type Date Time Source
KLUL METAR 2021/03/07 08:35 UTC NOAA

KLUL 070835Z AUTO 33005KT 10SM CLR 04/M02 A3029 RMK A02 T00381020


Station Type Date Time Source
KLUL Decoded METAR 2021/03/07 08:35 UTC NOAA

Station name not available
Mar 07, 2021 - 03:35 AM EST / 2021.03.07 0835 UTC
Wind: from the NNW (330 degrees) at 6 MPH (5 KT):0
Visibility: 10 mile(s):0
Sky conditions: clear
Temperature: 38.8 F (3.8 C)
Dew Point: 28.4 F (-2.0 C)
Relative Humidity: 65%
Pressure (altimeter): 30.29 in. Hg (1025 hPa)
ob: KLUL 070835Z AUTO 33005KT 10SM CLR 04/M02 A3029 RMK A02 T00381020
cycle: 8

Station Type Date Time Source
KLUL TAF UTC NOAA

Error!

Example: see airport list